Time;durP1;ratioP1;P1;durP2;ratioP2;P2;SDS_P1;SDS_P2;PMS_P1;PMS_P2;Temp;Humidity;BMP_temperature;BMP_pressure;BME280_temperature;BME280_humidity;BME280_pressure;Samples;Min_cycle;Max_cycle;Signal;HPM_P1;HPM_P2
2023/04/09 00:01:24;;;;;;;52.83;32.70;;;9.20;99.90;;;;;;5091501;28;20067;-70
2023/04/09 00:03:50;;;;;;;53.80;31.20;;;9.30;99.90;;;;;;5108480;28;20039;-70
2023/04/09 00:06:16;;;;;;;48.60;30.08;;;9.20;99.90;;;;;;5125134;28;20055;-70
2023/04/09 00:08:41;;;;;;;52.88;33.38;;;9.20;99.90;;;;;;5131892;27;20122;-70
2023/04/09 00:11:07;;;;;;;52.92;32.83;;;9.10;99.90;;;;;;5084253;28;20504;-70
2023/04/09 00:13:32;;;;;;;50.17;30.90;;;9.20;99.90;;;;;;5078327;28;20163;-71
2023/04/09 00:15:58;;;;;;;50.67;29.23;;;9.00;99.90;;;;;;5097167;28;20436;-70
2023/04/09 00:18:23;;;;;;;53.08;32.00;;;9.10;99.90;;;;;;5132854;27;20032;-70
2023/04/09 00:20:49;;;;;;;52.22;31.73;;;9.10;99.90;;;;;;5090229;28;20031;-70
2023/04/09 00:23:15;;;;;;;47.20;29.25;;;9.10;99.90;;;;;;5095020;28;20039;-70
2023/04/09 00:25:40;;;;;;;48.80;30.38;;;9.00;99.90;;;;;;5102914;28;20128;-70
2023/04/09 00:28:06;;;;;;;46.95;29.25;;;9.00;99.90;;;;;;5094887;28;20128;-71
2023/04/09 00:30:31;;;;;;;44.13;26.55;;;9.00;99.90;;;;;;5094880;28;20123;-70
2023/04/09 00:32:57;;;;;;;38.25;24.90;;;9.00;99.90;;;;;;5110513;28;20507;-70
2023/04/09 00:35:23;;;;;;;37.42;23.45;;;9.00;99.90;;;;;;5107732;28;20046;-70
2023/04/09 00:37:48;;;;;;;35.90;22.92;;;9.00;99.90;;;;;;5112697;27;20032;-70
2023/04/09 00:40:14;;;;;;;34.28;21.05;;;9.00;99.90;;;;;;5111714;28;20040;-70
2023/04/09 00:42:40;;;;;;;33.83;22.13;;;9.00;99.90;;;;;;5094665;28;20128;-70
2023/04/09 00:45:07;;;;;;;33.28;22.80;;;9.20;99.90;;;;;;5098189;28;20031;-70
2023/04/09 00:47:33;;;;;;;38.80;23.10;;;9.20;99.90;;;;;;5096893;28;20098;-70
2023/04/09 00:50:00;;;;;;;37.78;24.40;;;9.20;99.90;;;;;;5097963;28;20035;-70
2023/04/09 00:52:25;;;;;;;39.28;24.35;;;9.20;99.90;;;;;;5112645;28;20071;-70
2023/04/09 00:54:52;;;;;;;35.85;23.48;;;9.20;99.90;;;;;;5118828;27;20040;-71
2023/04/09 00:57:18;;;;;;;37.00;22.73;;;9.20;99.90;;;;;;5095523;28;20085;-70
2023/04/09 00:59:44;;;;;;;37.42;24.13;;;9.10;99.90;;;;;;5114844;28;20039;-70
2023/04/09 01:02:11;;;;;;;39.22;23.98;;;9.10;99.90;;;;;;5097653;28;20036;-70
2023/04/09 01:04:39;;;;;;;36.53;22.90;;;9.10;99.90;;;;;;5096915;28;20050;-70
2023/04/09 01:07:25;;;;;;;33.80;22.08;;;9.00;99.90;;;;;;5110960;28;20088;-70
2023/04/09 01:10:20;;;;;;;36.05;21.75;;;9.00;99.90;;;;;;5113145;28;20039;-70
2023/04/09 01:12:55;;;;;;;35.25;21.52;;;9.00;99.90;;;;;;5114543;28;20089;-70
2023/04/09 01:15:32;;;;;;;33.75;19.50;;;9.10;99.90;;;;;;5130437;27;20108;-70
2023/04/09 01:18:16;;;;;;;35.80;20.85;;;9.10;99.90;;;;;;5096311;28;20046;-70
2023/04/09 01:20:52;;;;;;;36.70;22.52;;;9.10;99.90;;;;;;5115405;27;20039;-70
2023/04/09 01:23:28;;;;;;;36.72;21.17;;;9.00;99.90;;;;;;5114394;28;20036;-70
2023/04/09 01:26:03;;;;;;;33.08;21.33;;;9.00;99.90;;;;;;5129987;27;20046;-70
2023/04/09 01:28:35;;;;;;;32.10;21.73;;;8.90;99.90;;;;;;5076932;28;20137;-70
2023/04/09 01:31:13;;;;;;;38.80;23.10;;;8.90;99.90;;;;;;5094076;28;20500;-70
2023/04/09 01:33:40;;;;;;;33.90;22.08;;;8.80;99.90;;;;;;5093665;28;20543;-70
2023/04/09 01:36:06;;;;;;;34.42;21.13;;;8.80;99.90;;;;;;5106269;28;20040;-70
2023/04/09 01:38:38;;;;;;;33.67;21.67;;;8.70;99.90;;;;;;5110563;28;20036;-70
2023/04/09 01:41:05;;;;;;;33.95;20.80;;;8.70;99.90;;;;;;5093648;28;20040;-70
2023/04/09 01:43:32;;;;;;;29.90;21.35;;;8.70;99.90;;;;;;5102156;28;20040;-70
2023/04/09 01:46:00;;;;;;;33.15;21.50;;;8.80;99.90;;;;;;5095891;28;20112;-70
2023/04/09 01:48:27;;;;;;;36.15;22.75;;;8.80;99.90;;;;;;5096879;28;20032;-70
2023/04/09 01:50:53;;;;;;;33.38;21.23;;;8.80;99.90;;;;;;5094732;28;20425;-70
2023/04/09 01:53:20;;;;;;;33.90;21.83;;;8.80;99.90;;;;;;5093787;28;20133;-70
2023/04/09 01:55:46;;;;;;;32.22;20.08;;;8.80;99.90;;;;;;5112294;28;20165;-70
2023/04/09 01:58:12;;;;;;;34.15;20.77;;;8.80;99.90;;;;;;5113486;28;20126;-70
2023/04/09 02:00:40;;;;;;;33.92;21.95;;;8.80;99.90;;;;;;5096543;28;20040;-70
2023/04/09 02:03:18;;;;;;;34.80;20.90;;;8.80;99.90;;;;;;5113481;28;20105;-70
2023/04/09 02:05:51;;;;;;;33.80;22.10;;;8.70;99.90;;;;;;5091030;28;20039;-70
2023/04/09 02:08:20;;;;;;;32.50;21.75;;;8.70;99.90;;;;;;5094578;28;20122;-70
2023/04/09 02:10:54;;;;;;;34.90;22.05;;;8.70;99.90;;;;;;5113011;28;20043;-70
2023/04/09 02:13:20;;;;;;;30.52;20.95;;;8.60;99.90;;;;;;5113458;28;20123;-70
2023/04/09 02:15:47;;;;;;;33.53;20.60;;;8.70;99.90;;;;;;5111851;28;20115;-70
2023/04/09 02:18:27;;;;;;;35.20;22.45;;;8.60;99.90;;;;;;5096239;28;20035;-70
2023/04/09 02:20:54;;;;;;;32.17;21.00;;;8.60;99.90;;;;;;5095220;28;20377;-70
2023/04/09 02:23:20;;;;;;;32.92;21.15;;;8.60;99.90;;;;;;5096114;28;20084;-70
2023/04/09 02:25:45;;;;;;;31.27;21.30;;;8.60;99.90;;;;;;5101811;28;20474;-70
2023/04/09 02:28:11;;;;;;;31.88;21.20;;;8.60;99.90;;;;;;5092578;28;20036;-70
2023/04/09 02:30:37;;;;;;;33.67;21.52;;;8.60;99.90;;;;;;5109370;28;20128;-70
2023/04/09 02:33:02;;;;;;;29.48;19.42;;;8.60;99.90;;;;;;5092484;28;20039;-70
2023/04/09 02:35:28;;;;;;;31.80;20.98;;;8.60;99.90;;;;;;5108922;28;20094;-70
2023/04/09 02:37:54;;;;;;;32.30;21.20;;;8.60;99.90;;;;;;5109735;28;20040;-71
2023/04/09 02:40:20;;;;;;;34.28;22.15;;;8.60;99.90;;;;;;5098501;28;20372;-70
2023/04/09 02:42:45;;;;;;;35.00;22.77;;;8.60;99.90;;;;;;5110091;28;20065;-70
2023/04/09 02:45:11;;;;;;;31.67;21.35;;;8.50;99.90;;;;;;5092355;28;20036;-70
2023/04/09 02:47:36;;;;;;;31.17;20.83;;;8.50;99.90;;;;;;5109159;28;20101;-70
2023/04/09 02:50:02;;;;;;;33.45;22.08;;;8.50;99.90;;;;;;5108766;28;20062;-70
2023/04/09 02:52:27;;;;;;;32.50;20.65;;;8.50;99.90;;;;;;5092144;28;20063;-70
2023/04/09 02:54:53;;;;;;;34.83;21.35;;;8.50;99.90;;;;;;5091990;28;20054;-70
2023/04/09 02:57:19;;;;;;;34.45;21.08;;;8.50;99.90;;;;;;5102189;28;20043;-70
2023/04/09 02:59:45;;;;;;;31.67;21.10;;;8.50;99.90;;;;;;5095416;28;20040;-70
2023/04/09 03:02:11;;;;;;;35.08;22.17;;;8.50;99.90;;;;;;5103361;28;20388;-70
2023/04/09 03:04:37;;;;;;;32.10;21.20;;;8.50;99.90;;;;;;5095166;28;20113;-70
2023/04/09 03:07:03;;;;;;;32.83;21.63;;;8.50;99.90;;;;;;5090590;28;20040;-70
2023/04/09 03:09:29;;;;;;;32.95;21.33;;;8.50;99.90;;;;;;5106226;28;20051;-70
2023/04/09 03:11:56;;;;;;;33.78;21.60;;;8.50;99.90;;;;;;5093101;28;20116;-70
2023/04/09 03:14:22;;;;;;;35.38;23.85;;;8.50;99.90;;;;;;5112413;28;20050;-70
2023/04/09 03:16:48;;;;;;;33.40;21.02;;;8.50;99.90;;;;;;5084255;28;20031;-70
2023/04/09 03:19:13;;;;;;;33.67;21.80;;;8.50;99.90;;;;;;5086878;28;20124;-70
2023/04/09 03:21:39;;;;;;;31.15;21.17;;;8.50;99.90;;;;;;5104412;28;20035;-70
2023/04/09 03:24:05;;;;;;;34.30;22.90;;;8.50;99.90;;;;;;5099772;28;20085;-70
2023/04/09 03:26:35;;;;;;;35.47;22.02;;;8.50;99.90;;;;;;5099237;28;20044;-70
2023/04/09 03:29:02;;;;;;;34.58;22.08;;;8.50;99.90;;;;;;5103502;28;20545;-70
2023/04/09 03:31:27;;;;;;;33.55;21.65;;;8.50;99.90;;;;;;5092202;28;20488;-70
2023/04/09 03:33:53;;;;;;;34.00;22.27;;;8.40;99.90;;;;;;5108057;28;20123;-70
2023/04/09 03:36:19;;;;;;;33.70;21.27;;;8.50;99.90;;;;;;5110351;28;20099;-70
2023/04/09 03:38:44;;;;;;;37.25;22.67;;;8.40;99.90;;;;;;5116521;28;20075;-70
2023/04/09 03:41:10;;;;;;;36.50;22.05;;;8.50;99.90;;;;;;5094205;28;20059;-70
2023/04/09 03:43:35;;;;;;;32.60;22.48;;;8.40;99.90;;;;;;5095616;28;20071;-71
2023/04/09 03:46:09;;;;;;;33.75;22.20;;;8.50;99.90;;;;;;5081994;28;20039;-70
2023/04/09 03:48:35;;;;;;;35.22;23.58;;;8.40;99.90;;;;;;5098140;28;20407;-70
2023/04/09 03:51:00;;;;;;;31.13;21.40;;;8.40;99.90;;;;;;5113295;27;20028;-70
2023/04/09 03:53:26;;;;;;;32.15;21.58;;;8.40;99.90;;;;;;5098882;28;20058;-70
2023/04/09 03:55:51;;;;;;;42.80;23.45;;;8.40;99.90;;;;;;5093372;28;20507;-70
2023/04/09 03:58:17;;;;;;;31.35;21.65;;;8.40;99.90;;;;;;5107622;28;20040;-71
2023/04/09 04:00:43;;;;;;;38.03;24.80;;;8.40;99.90;;;;;;5099853;28;20028;-71
2023/04/09 04:03:10;;;;;;;36.40;24.13;;;8.40;99.90;;;;;;5095508;28;20036;-71
2023/04/09 04:05:36;;;;;;;38.38;23.38;;;8.40;99.90;;;;;;5088177;28;20047;-71
2023/04/09 04:08:01;;;;;;;34.03;22.13;;;8.40;99.90;;;;;;5112502;28;20042;-70
2023/04/09 04:10:27;;;;;;;35.38;23.70;;;8.40;99.90;;;;;;5083972;27;20077;-71
2023/04/09 04:12:52;;;;;;;36.60;22.92;;;8.40;99.90;;;;;;5096485;28;20515;-70
2023/04/09 04:15:19;;;;;;;38.75;23.88;;;8.40;99.90;;;;;;5103304;28;20123;-70
2023/04/09 04:17:45;;;;;;;45.75;25.17;;;8.40;99.90;;;;;;5102219;28;20436;-70
2023/04/09 04:20:10;;;;;;;39.17;26.15;;;8.40;99.90;;;;;;5079308;28;20388;-70
2023/04/09 04:22:36;;;;;;;35.67;23.02;;;8.40;99.90;;;;;;5082017;28;20039;-70
2023/04/09 04:25:03;;;;;;;34.95;22.35;;;8.40;99.90;;;;;;5125183;27;20042;-70
2023/04/09 04:27:29;;;;;;;34.38;21.90;;;8.40;99.90;;;;;;5115985;27;20039;-70
2023/04/09 04:29:57;;;;;;;35.13;22.77;;;8.40;99.90;;;;;;5110944;28;20377;-70
2023/04/09 04:32:23;;;;;;;37.92;24.33;;;8.40;99.90;;;;;;5086984;28;20425;-70
2023/04/09 04:34:49;;;;;;;39.58;23.85;;;8.40;99.90;;;;;;5115190;28;20044;-70
2023/04/09 04:37:14;;;;;;;35.38;24.48;;;8.40;99.90;;;;;;5083677;28;20368;-70
2023/04/09 04:39:40;;;;;;;37.75;23.25;;;8.50;99.90;;;;;;5093634;28;20119;-71
2023/04/09 04:42:06;;;;;;;38.63;23.83;;;8.50;99.90;;;;;;5079584;28;20112;-70
2023/04/09 04:44:31;;;;;;;44.25;24.77;;;8.40;99.90;;;;;;5118217;27;20487;-70
2023/04/09 04:46:57;;;;;;;36.25;22.98;;;8.40;99.90;;;;;;5109253;28;20122;-70
2023/04/09 04:49:22;;;;;;;36.42;23.67;;;8.40;99.90;;;;;;5080523;28;20036;-70
2023/04/09 04:51:48;;;;;;;38.47;24.15;;;8.50;99.90;;;;;;5096163;28;20089;-70
2023/04/09 04:54:13;;;;;;;35.10;22.23;;;8.40;99.90;;;;;;5110537;28;20141;-70
2023/04/09 04:56:39;;;;;;;38.58;23.65;;;8.40;99.90;;;;;;5086329;28;20044;-70
2023/04/09 04:59:04;;;;;;;39.05;23.75;;;8.40;99.90;;;;;;5081901;28;20684;-70
2023/04/09 05:01:30;;;;;;;39.53;23.85;;;8.40;99.90;;;;;;5111012;27;20514;-70
2023/04/09 05:03:56;;;;;;;39.50;25.25;;;8.40;99.90;;;;;;5114296;27;20028;-70
2023/04/09 05:06:21;;;;;;;38.40;23.00;;;8.30;99.90;;;;;;5081096;28;20510;-70
2023/04/09 05:08:47;;;;;;;37.08;23.73;;;8.30;99.90;;;;;;5104973;28;20050;-70
2023/04/09 05:11:14;;;;;;;35.63;22.30;;;8.30;99.90;;;;;;5097789;28;20039;-70
2023/04/09 05:13:40;;;;;;;36.35;23.13;;;8.40;99.90;;;;;;5107143;28;20433;-70
2023/04/09 05:16:06;;;;;;;34.38;22.15;;;8.40;99.90;;;;;;5090888;28;20376;-70
2023/04/09 05:18:31;;;;;;;32.30;21.25;;;8.40;99.90;;;;;;5108634;28;20039;-70
2023/04/09 05:20:57;;;;;;;34.58;21.13;;;8.30;99.90;;;;;;5123737;27;20032;-70
2023/04/09 05:23:22;;;;;;;36.70;23.90;;;8.30;99.90;;;;;;5104501;28;20066;-70
2023/04/09 05:25:49;;;;;;;33.97;21.63;;;8.30;99.90;;;;;;5094575;28;20446;-70
2023/04/09 05:28:15;;;;;;;35.30;22.77;;;8.30;99.90;;;;;;5094479;28;20039;-70
2023/04/09 05:30:45;;;;;;;34.28;22.10;;;8.40;99.90;;;;;;5094483;28;20106;-70
2023/04/09 05:33:10;;;;;;;34.42;23.50;;;8.30;99.90;;;;;;5093589;28;20400;-70
2023/04/09 05:35:39;;;;;;;36.42;24.15;;;8.30;99.90;;;;;;5108074;28;20040;-70
2023/04/09 05:38:05;;;;;;;35.28;23.27;;;8.30;99.90;;;;;;5111958;27;20040;-70
2023/04/09 05:40:31;;;;;;;38.90;23.70;;;8.30;99.90;;;;;;5113154;27;20047;-70
2023/04/09 05:42:56;;;;;;;40.03;24.30;;;8.30;99.90;;;;;;5096785;28;20039;-70
2023/04/09 05:45:22;;;;;;;36.05;23.67;;;8.40;99.90;;;;;;5094979;27;20170;-70
2023/04/09 05:47:47;;;;;;;36.97;23.67;;;8.40;99.90;;;;;;5078505;28;20114;-70
2023/04/09 05:50:13;;;;;;;35.55;23.13;;;8.40;99.90;;;;;;5093126;28;20051;-70
2023/04/09 05:52:39;;;;;;;35.55;23.40;;;8.40;99.90;;;;;;5120068;27;20343;-70
2023/04/09 05:55:05;;;;;;;34.22;21.83;;;8.40;99.90;;;;;;5096627;28;20108;-70
2023/04/09 05:57:31;;;;;;;35.85;23.30;;;8.40;99.90;;;;;;5107071;28;20110;-70
2023/04/09 05:59:57;;;;;;;33.40;22.63;;;8.40;99.90;;;;;;5092616;28;20173;-70
2023/04/09 06:02:24;;;;;;;35.38;22.23;;;8.40;99.90;;;;;;5115857;27;20036;-70
2023/04/09 06:04:50;;;;;;;33.28;21.38;;;8.40;99.90;;;;;;5092474;28;20043;-70
2023/04/09 06:07:16;;;;;;;33.35;22.48;;;8.50;99.90;;;;;;5105966;28;20472;-70
2023/04/09 06:09:45;;;;;;;34.47;20.88;;;8.50;99.90;;;;;;5083824;28;20036;-70
2023/04/09 06:12:12;;;;;;;33.63;21.88;;;8.50;99.90;;;;;;5077171;28;20036;-70
2023/04/09 06:14:38;;;;;;;34.22;20.00;;;8.60;99.90;;;;;;5102010;28;20040;-70
2023/04/09 06:17:03;;;;;;;32.90;20.38;;;8.60;99.90;;;;;;5090751;28;20039;-70
2023/04/09 06:19:29;;;;;;;31.42;19.42;;;8.60;99.90;;;;;;5091192;28;20036;-70
2023/04/09 06:21:54;;;;;;;31.92;21.00;;;8.60;99.90;;;;;;5111125;28;20046;-70
2023/04/09 06:24:20;;;;;;;30.48;20.45;;;8.60;99.90;;;;;;5111833;28;20126;-70
2023/04/09 06:26:46;;;;;;;31.25;19.88;;;8.60;99.90;;;;;;5106132;28;20381;-70
2023/04/09 06:29:11;;;;;;;32.20;21.00;;;8.60;99.90;;;;;;5086500;28;20051;-70
2023/04/09 06:31:37;;;;;;;33.45;20.05;;;8.50;99.90;;;;;;5091209;28;20456;-70
2023/04/09 06:34:02;;;;;;;31.85;19.55;;;8.50;99.90;;;;;;5113326;27;20035;-70
2023/04/09 06:36:29;;;;;;;31.35;19.27;;;8.50;99.90;;;;;;5116018;27;20035;-70
2023/04/09 06:38:55;;;;;;;33.47;21.30;;;8.50;99.90;;;;;;5110817;28;20063;-70
2023/04/09 06:41:21;;;;;;;32.05;20.58;;;8.60;99.90;;;;;;5109621;28;20071;-70
2023/04/09 06:43:47;;;;;;;31.42;20.95;;;8.60;99.90;;;;;;5107090;28;20411;-70
2023/04/09 06:46:16;;;;;;;35.13;22.02;;;8.50;99.90;;;;;;5106356;28;20035;-70
2023/04/09 06:48:43;;;;;;;36.78;23.50;;;8.50;99.90;;;;;;5092310;28;20039;-70
2023/04/09 06:51:09;;;;;;;40.03;25.85;;;8.50;99.90;;;;;;5095467;28;20038;-70
2023/04/09 06:53:36;;;;;;;38.92;27.02;;;8.50;99.90;;;;;;5093624;28;20047;-70
2023/04/09 06:56:02;;;;;;;41.53;26.10;;;8.50;99.90;;;;;;5092288;28;20040;-70
2023/04/09 06:58:28;;;;;;;40.42;24.33;;;8.50;99.90;;;;;;5104845;27;20454;-70
2023/04/09 07:00:53;;;;;;;39.72;24.92;;;8.60;99.90;;;;;;5111825;28;20046;-70
2023/04/09 07:03:19;;;;;;;41.22;25.40;;;8.60;99.90;;;;;;5080837;28;20035;-70
2023/04/09 07:05:45;;;;;;;42.47;27.05;;;8.60;99.90;;;;;;5097343;28;20178;-70
2023/04/09 07:08:11;;;;;;;39.55;25.23;;;8.60;99.90;;;;;;5086778;28;20066;-70
2023/04/09 07:10:37;;;;;;;38.45;25.20;;;8.80;99.90;;;;;;5090245;28;20059;-70
2023/04/09 07:13:02;;;;;;;37.35;24.50;;;8.90;99.90;;;;;;5095007;28;20050;-70
2023/04/09 07:15:28;;;;;;;41.78;26.70;;;8.90;99.90;;;;;;5086954;28;20403;-70
2023/04/09 07:17:54;;;;;;;42.55;25.88;;;9.10;99.90;;;;;;5109500;28;20090;-70
2023/04/09 07:20:19;;;;;;;41.92;24.92;;;9.20;99.90;;;;;;5094597;28;20093;-70
2023/04/09 07:22:45;;;;;;;38.67;21.80;;;9.10;99.90;;;;;;5091453;28;20050;-70
2023/04/09 07:25:10;;;;;;;41.72;25.73;;;9.20;99.90;;;;;;5093302;28;20048;-70
2023/04/09 07:27:36;;;;;;;40.08;24.83;;;9.20;99.90;;;;;;5076416;28;20040;-70
2023/04/09 07:30:02;;;;;;;38.80;23.58;;;9.20;99.90;;;;;;5110235;28;20046;-74
2023/04/09 07:32:28;;;;;;;39.05;24.25;;;9.20;99.90;;;;;;5101542;28;20039;-75
2023/04/09 07:34:54;;;;;;;39.28;24.05;;;9.20;99.90;;;;;;5106118;28;20031;-70
2023/04/09 07:37:20;;;;;;;40.80;25.33;;;9.30;99.90;;;;;;5105779;28;20079;-70
2023/04/09 07:39:46;;;;;;;41.50;23.80;;;9.20;99.90;;;;;;5101507;28;20507;-70
2023/04/09 07:42:13;;;;;;;39.85;25.42;;;9.30;99.90;;;;;;5106636;28;20485;-70
2023/04/09 07:44:38;;;;;;;37.33;23.13;;;9.40;99.90;;;;;;5092560;28;20093;-70
2023/04/09 07:47:05;;;;;;;38.15;24.13;;;9.30;99.90;;;;;;5107618;28;20071;-70
2023/04/09 07:49:31;;;;;;;39.40;24.75;;;9.30;99.90;;;;;;5091030;28;20040;-70
2023/04/09 07:51:58;;;;;;;35.90;21.50;;;9.40;99.90;;;;;;5100552;28;20515;-70
2023/04/09 07:54:24;;;;;;;41.28;24.40;;;9.50;99.90;;;;;;5082577;28;20044;-70
2023/04/09 07:56:50;;;;;;;41.00;24.73;;;9.40;99.90;;;;;;5090602;28;20377;-70
2023/04/09 07:59:16;;;;;;;38.80;23.30;;;9.40;99.90;;;;;;5089220;28;20032;-70
2023/04/09 08:01:42;;;;;;;40.33;24.83;;;9.50;99.90;;;;;;5100462;28;20444;-70
2023/04/09 08:04:08;;;;;;;36.88;23.80;;;9.60;99.90;;;;;;5110799;28;20583;-70
2023/04/09 08:06:34;;;;;;;36.58;21.42;;;9.70;99.90;;;;;;5090638;28;20114;-70
2023/04/09 08:09:00;;;;;;;35.45;22.92;;;9.70;99.90;;;;;;5084939;28;20497;-70
2023/04/09 08:11:26;;;;;;;33.55;19.25;;;9.70;99.90;;;;;;5097512;28;20118;-70
2023/04/09 08:13:51;;;;;;;37.08;23.50;;;9.80;99.90;;;;;;5109635;28;20035;-70
2023/04/09 08:16:17;;;;;;;40.42;24.33;;;9.80;99.90;;;;;;5095561;28;20040;-70
2023/04/09 08:18:43;;;;;;;37.85;24.80;;;9.70;99.90;;;;;;5096845;28;20040;-70
2023/04/09 08:21:08;;;;;;;38.65;24.33;;;9.80;99.90;;;;;;5094897;28;20043;-70
2023/04/09 08:23:34;;;;;;;38.03;23.65;;;9.90;99.90;;;;;;5074433;28;20123;-70
2023/04/09 08:26:00;;;;;;;37.70;23.40;;;10.00;99.90;;;;;;5101370;28;20035;-70
2023/04/09 08:28:26;;;;;;;27.20;15.30;;;10.00;99.90;;;;;;5117690;28;20483;-70
2023/04/09 08:30:51;;;;;;;36.13;22.50;;;10.10;99.90;;;;;;5109957;28;20039;-70
2023/04/09 08:33:17;;;;;;;33.78;21.77;;;10.30;99.90;;;;;;5111515;28;20052;-70
2023/04/09 08:35:43;;;;;;;36.20;23.92;;;10.30;99.90;;;;;;5094616;28;20101;-70
2023/04/09 08:38:08;;;;;;;36.28;22.95;;;10.20;99.90;;;;;;5084936;28;20034;-70
2023/04/09 08:40:34;;;;;;;36.58;21.85;;;10.30;99.90;;;;;;5111932;27;20040;-70
2023/04/09 08:43:05;;;;;;;39.72;25.15;;;10.50;99.90;;;;;;5112760;28;20039;-70
2023/04/09 08:45:30;;;;;;;39.10;24.98;;;10.40;99.90;;;;;;5093711;28;20032;-70
2023/04/09 08:47:59;;;;;;;39.75;24.88;;;10.40;99.90;;;;;;5094527;28;20450;-70
2023/04/09 08:50:25;;;;;;;37.85;24.73;;;10.50;99.90;;;;;;5100459;28;20395;-70
2023/04/09 08:52:53;;;;;;;37.72;25.15;;;10.50;99.90;;;;;;5113155;27;20496;-70
2023/04/09 08:55:18;;;;;;;37.45;24.13;;;10.50;99.90;;;;;;5100830;28;20101;-70
2023/04/09 08:57:44;;;;;;;37.50;23.63;;;10.60;99.90;;;;;;5111348;28;20426;-70
2023/04/09 09:00:11;;;;;;;35.78;24.08;;;10.70;99.90;;;;;;5095151;27;20553;-70
2023/04/09 09:02:38;;;;;;;36.65;22.73;;;10.90;99.90;;;;;;5099034;28;20035;-70
2023/04/09 09:05:04;;;;;;;37.60;23.50;;;10.80;99.90;;;;;;5110021;28;20040;-70
2023/04/09 09:07:30;;;;;;;38.10;23.27;;;10.90;99.90;;;;;;5095437;28;20039;-70
2023/04/09 09:09:58;;;;;;;36.10;24.00;;;11.00;99.90;;;;;;5095012;28;20072;-70
2023/04/09 09:12:41;;;;;;;37.03;23.73;;;11.00;99.90;;;;;;5111025;28;20071;-70
2023/04/09 09:15:26;;;;;;;33.08;23.35;;;11.00;99.90;;;;;;5114407;28;20080;-70
2023/04/09 09:17:54;;;;;;;35.03;21.33;;;11.00;99.90;;;;;;5096039;28;20122;-69
2023/04/09 09:20:21;;;;;;;38.85;24.33;;;11.10;99.90;;;;;;5103372;28;20046;-70
2023/04/09 09:22:51;;;;;;;32.60;23.08;;;11.30;99.90;;;;;;5091551;28;20039;-70
2023/04/09 09:25:17;;;;;;;33.10;20.55;;;11.30;99.90;;;;;;5112626;28;20047;-70
2023/04/09 09:27:42;;;;;;;36.28;23.77;;;11.40;99.90;;;;;;5111979;28;20039;-70
2023/04/09 09:30:19;;;;;;;37.45;23.80;;;11.30;99.90;;;;;;5086381;28;20071;-70
2023/04/09 09:32:45;;;;;;;35.60;23.70;;;11.30;99.90;;;;;;5099950;28;20115;-70
2023/04/09 09:35:10;;;;;;;37.13;24.02;;;11.30;99.90;;;;;;5097805;28;20498;-70
2023/04/09 09:37:36;;;;;;;36.92;23.40;;;11.20;99.90;;;;;;5110892;28;20031;-70
2023/04/09 09:40:03;;;;;;;37.00;24.02;;;11.40;99.90;;;;;;5100535;28;20024;-70
2023/04/09 09:42:29;;;;;;;34.10;22.50;;;11.30;99.90;;;;;;5093985;28;20088;-69
2023/04/09 09:44:54;;;;;;;38.90;24.52;;;11.40;99.90;;;;;;5110198;28;20122;-70
2023/04/09 09:47:21;;;;;;;35.25;23.88;;;11.30;99.90;;;;;;5102724;28;20047;-69
2023/04/09 09:49:48;;;;;;;33.80;22.33;;;11.30;99.90;;;;;;5080949;28;20134;-70
2023/04/09 09:52:15;;;;;;;38.70;24.15;;;11.40;99.90;;;;;;5075117;28;20518;-70
2023/04/09 09:54:42;;;;;;;35.95;23.25;;;11.30;99.90;;;;;;5093361;28;20044;-70
2023/04/09 09:57:14;;;;;;;35.75;24.42;;;11.40;99.90;;;;;;5075509;28;20113;-70
2023/04/09 09:59:42;;;;;;;;;;;11.40;99.90;;;;;;5094918;28;20400;-70
2023/04/09 10:02:30;;;;;;;38.65;23.98;;;11.40;99.90;;;;;;5103615;28;20411;-69
2023/04/09 10:04:59;;;;;;;34.53;23.70;;;11.50;99.90;;;;;;5073235;28;20077;-70
2023/04/09 10:07:25;;;;;;;34.42;23.75;;;11.60;99.90;;;;;;5100058;28;20035;-70
2023/04/09 10:09:53;;;;;;;33.65;23.00;;;11.60;99.90;;;;;;5109253;28;20518;-70
2023/04/09 10:12:22;;;;;;;32.13;22.73;;;11.70;99.90;;;;;;5095434;28;20507;-70
2023/04/09 10:14:49;;;;;;;32.05;20.65;;;11.90;99.90;;;;;;5087153;28;20036;-70
2023/04/09 10:17:16;;;;;;;31.40;19.60;;;12.30;99.90;;;;;;5104418;28;20488;-70
2023/04/09 10:19:52;;;;;;;33.72;22.48;;;12.40;99.90;;;;;;5096234;28;20032;-70
2023/04/09 10:22:21;;;;;;;34.10;21.48;;;12.30;99.90;;;;;;5121516;27;20035;-70
2023/04/09 10:24:47;;;;;;;31.50;21.48;;;12.20;99.90;;;;;;5101658;28;20396;-70
2023/04/09 10:27:15;;;;;;;35.97;23.38;;;12.10;99.90;;;;;;5078954;28;20452;-70
2023/04/09 10:29:46;;;;;;;31.45;21.27;;;12.20;99.90;;;;;;5100097;28;20515;-70
2023/04/09 10:32:20;;;;;;;34.97;21.60;;;12.20;99.90;;;;;;5105815;28;20032;-70
2023/04/09 10:34:46;;;;;;;30.40;20.23;;;12.20;99.90;;;;;;5091529;28;20380;-70
2023/04/09 10:37:19;;;;;;;29.38;18.63;;;12.20;99.90;;;;;;5110214;27;20544;-70
2023/04/09 10:39:46;;;;;;;32.15;22.77;;;12.30;99.90;;;;;;5100727;28;20522;-70
2023/04/09 10:42:34;;;;;;;35.78;23.02;;;12.20;99.90;;;;;;5091624;28;20040;-70
2023/04/09 10:45:10;;;;;;;29.77;18.52;;;12.20;99.90;;;;;;5092961;28;20511;-70
2023/04/09 10:47:38;;;;;;;29.10;20.20;;;12.30;99.90;;;;;;5073597;28;20032;-70
2023/04/09 10:50:29;;;;;;;31.52;20.33;;;12.30;99.90;;;;;;5125668;27;20052;-70
2023/04/09 10:52:58;;;;;;;31.17;21.23;;;12.30;99.90;;;;;;5098997;28;20074;-70
2023/04/09 10:55:30;;;;;;;30.52;18.90;;;12.30;99.90;;;;;;5094286;28;20056;-70
2023/04/09 10:57:56;;;;;;;29.63;20.52;;;12.30;99.90;;;;;;5079245;28;20119;-70
2023/04/09 11:00:22;;;;;;;31.80;22.42;;;12.40;99.90;;;;;;5090870;28;20563;-70
2023/04/09 11:03:11;;;;;;;29.40;20.58;;;12.50;99.90;;;;;;5091527;28;20115;-70
2023/04/09 11:05:39;;;;;;;28.45;20.52;;;12.70;99.90;;;;;;5102847;28;20055;-70
2023/04/09 11:08:11;;;;;;;29.40;20.00;;;12.60;99.90;;;;;;5091954;28;20068;-70
2023/04/09 11:10:42;;;;;;;27.92;20.27;;;12.60;99.90;;;;;;5110323;28;20046;-70
2023/04/09 11:13:15;;;;;;;29.25;20.27;;;12.60;99.90;;;;;;5101924;28;20047;-70
2023/04/09 11:15:42;;;;;;;29.23;20.55;;;12.70;99.90;;;;;;5082303;28;20092;-70
2023/04/09 11:18:12;;;;;;;29.58;18.40;;;12.70;99.90;;;;;;5088617;28;20043;-70
2023/04/09 11:20:39;;;;;;;25.65;18.40;;;12.80;99.90;;;;;;5101131;28;20080;-70
2023/04/09 11:23:05;;;;;;;29.13;19.48;;;12.80;99.90;;;;;;5096251;28;20397;-70
2023/04/09 11:25:32;;;;;;;30.55;21.58;;;12.90;99.90;;;;;;5120217;28;20516;-69
2023/04/09 11:27:58;;;;;;;29.05;20.05;;;13.00;99.90;;;;;;5074538;28;20055;-70
2023/04/09 11:30:25;;;;;;;28.75;19.83;;;13.10;99.90;;;;;;5100260;28;20549;-70
2023/04/09 11:32:50;;;;;;;27.58;19.08;;;13.20;99.90;;;;;;5098102;28;20039;-70
2023/04/09 11:35:18;;;;;;;28.30;20.10;;;13.20;99.90;;;;;;5103704;28;20457;-70
2023/04/09 11:37:44;;;;;;;25.25;17.63;;;13.20;99.90;;;;;;5111615;28;20514;-70
2023/04/09 11:40:28;;;;;;;23.80;17.40;;;13.30;99.90;;;;;;5084858;28;20036;-70
2023/04/09 11:42:54;;;;;;;25.58;18.05;;;13.40;99.90;;;;;;5090737;28;20036;-70
2023/04/09 11:45:26;;;;;;;25.08;18.60;;;13.50;99.90;;;;;;5075763;28;20040;-69
2023/04/09 11:47:52;;;;;;;25.27;18.50;;;13.50;99.90;;;;;;5086225;28;20050;-70
2023/04/09 11:50:18;;;;;;;25.42;17.75;;;13.70;99.90;;;;;;5095648;28;20128;-70
2023/04/09 11:52:45;;;;;;;24.65;16.08;;;13.80;99.90;;;;;;5102990;28;20059;-69
2023/04/09 11:55:21;;;;;;;25.52;18.80;;;13.90;99.90;;;;;;5099590;28;20041;-69
2023/04/09 11:57:46;;;;;;;27.23;18.45;;;13.90;99.90;;;;;;5082453;28;20404;-70
2023/04/09 12:00:16;;;;;;;28.83;19.60;;;13.70;99.90;;;;;;5116517;28;20032;-70
2023/04/09 12:02:47;;;;;;;26.60;19.55;;;13.60;99.90;;;;;;5105583;28;20036;-70
2023/04/09 12:05:24;;;;;;;25.20;17.95;;;13.50;99.90;;;;;;5108775;28;20047;-70
2023/04/09 12:07:50;;;;;;;23.85;17.15;;;13.50;99.90;;;;;;5093795;28;20049;-70
2023/04/09 12:10:16;;;;;;;25.92;17.23;;;13.50;99.90;;;;;;5104713;28;20047;-69
2023/04/09 12:12:46;;;;;;;27.05;18.23;;;13.50;99.90;;;;;;5083147;28;20039;-69
2023/04/09 12:15:20;;;;;;;28.33;19.65;;;13.40;99.90;;;;;;5096056;28;20044;-69
2023/04/09 12:18:07;;;;;;;25.33;19.15;;;13.30;99.90;;;;;;5085430;28;20101;-69
2023/04/09 12:20:36;;;;;;;24.98;17.70;;;13.30;99.90;;;;;;5110262;28;20040;-70
2023/04/09 12:23:03;;;;;;;26.88;19.88;;;13.40;99.90;;;;;;5111848;28;20042;-70
2023/04/09 12:25:30;;;;;;;25.77;18.58;;;13.40;99.90;;;;;;5086808;28;20403;-69
2023/04/09 12:27:56;;;;;;;28.35;19.65;;;13.40;99.90;;;;;;5094995;27;20036;-70
2023/04/09 12:30:22;;;;;;;26.67;18.52;;;13.40;99.90;;;;;;5096498;28;20126;-69
2023/04/09 12:32:49;;;;;;;26.63;18.85;;;13.50;99.90;;;;;;5084822;28;20452;-69
2023/04/09 12:35:14;;;;;;;24.33;15.20;;;13.60;99.90;;;;;;5092892;28;20038;-69